Time,TemperatureF,DewpointF,PressureIn,WindDirection,WindDirectionDegrees,WindSpeedMPH,WindSpeedGustMPH,Humidity,HourlyPrecipIn,Conditions,Clouds,dailyrainin,SoftwareType,DateUTC
2013-07-17 00:12:00,76.2,73.0,30.13,WSW,250,0.0,0.0,88,0.00,,,0.00,weatherlink.com 1.10,2013-07-17 04:12:00,
2013-07-17 00:27:00,75.7,72.0,30.13,WSW,250,0.0,0.0,89,0.00,,,0.00,weatherlink.com 1.10,2013-07-17 04:27:00,
2013-07-17 00:42:00,75.2,72.0,30.13,WSW,250,0.0,0.0,89,0.00,,,0.00,weatherlink.com 1.10,2013-07-17 04:42:00,
2013-07-17 00:57:00,74.8,71.0,30.12,WSW,250,0.0,0.0,89,0.00,,,0.00,weatherlink.com 1.10,2013-07-17 04:57:00,
2013-07-17 01:12:00,74.5,72.0,30.12,WSW,250,0.0,0.0,90,0.00,,,0.00,weatherlink.com 1.10,2013-07-17 05:12:00,
2013-07-17 01:27:00,74.2,72.0,30.12,WSW,250,0.0,0.0,91,0.00,,,0.00,weatherlink.com 1.10,2013-07-17 05:27:00,
2013-07-17 01:42:00,73.9,71.0,30.12,WSW,250,0.0,0.0,91,0.00,,,0.00,weatherlink.com 1.10,2013-07-17 05:42:00,
2013-07-17 01:57:00,73.5,71.0,30.12,WSW,250,0.0,0.0,91,0.00,,,0.00,weatherlink.com 1.10,2013-07-17 05:57:00,
2013-07-17 02:12:00,73.2,71.0,30.11,WSW,250,0.0,0.0,92,0.00,,,0.00,weatherlink.com 1.10,2013-07-17 06:12:00,
2013-07-17 02:27:00,73.0,71.0,30.11,WSW,250,0.0,0.0,92,0.00,,,0.00,weatherlink.com 1.10,2013-07-17 06:27:00,
2013-07-17 02:42:00,72.8,70.0,30.11,WSW,250,0.0,0.0,92,0.00,,,0.00,weatherlink.com 1.10,2013-07-17 06:42:00,
2013-07-17 02:57:00,72.5,70.0,30.12,WSW,250,0.0,0.0,92,0.00,,,0.00,weatherlink.com 1.10,2013-07-17 06:57:00,
2013-07-17 03:12:00,72.4,70.0,30.12,WSW,250,0.0,0.0,92,0.00,,,0.00,weatherlink.com 1.10,2013-07-17 07:12:00,
2013-07-17 03:27:00,72.2,70.0,30.11,WSW,250,0.0,0.0,93,0.00,,,0.00,weatherlink.com 1.10,2013-07-17 07:27:00,
2013-07-17 03:42:00,72.1,70.0,30.12,WSW,250,0.0,0.0,93,0.00,,,0.00,weatherlink.com 1.10,2013-07-17 07:42:00,
2013-07-17 03:57:00,72.0,70.0,30.11,WSW,250,0.0,0.0,93,0.00,,,0.00,weatherlink.com 1.10,2013-07-17 07:57:00,
2013-07-17 04:12:00,71.8,70.0,30.12,WSW,250,0.0,0.0,93,0.00,,,0.00,weatherlink.com 1.10,2013-07-17 08:12:00,
2013-07-17 04:27:00,71.5,69.0,30.12,WSW,250,0.0,0.0,93,0.00,,,0.00,weatherlink.com 1.10,2013-07-17 08:27:00,
2013-07-17 04:42:00,71.6,70.0,30.13,WSW,250,0.0,0.0,94,0.00,,,0.00,weatherlink.com 1.10,2013-07-17 08:42:00,
2013-07-17 04:57:00,71.4,70.0,30.12,WSW,250,0.0,0.0,94,0.00,,,0.00,weatherlink.com 1.10,2013-07-17 08:57:00,
2013-07-17 05:12:00,71.1,69.0,30.13,WSW,250,0.0,0.0,94,0.00,,,0.00,weatherlink.com 1.10,2013-07-17 09:12:00,
2013-07-17 05:27:00,70.9,69.0,30.13,WSW,250,0.0,0.0,94,0.00,,,0.00,weatherlink.com 1.10,2013-07-17 09:27:00,
2013-07-17 05:42:00,70.8,69.0,30.13,WSW,250,0.0,0.0,95,0.00,,,0.00,weatherlink.com 1.10,2013-07-17 09:42:00,
2013-07-17 05:57:00,70.9,70.0,30.14,WSW,250,0.0,0.0,95,0.00,,,0.00,weatherlink.com 1.10,2013-07-17 09:57:00,
2013-07-17 06:12:00,71.0,70.0,30.14,WSW,250,0.0,0.0,95,0.00,,,0.00,weatherlink.com 1.10,2013-07-17 10:12:00,
2013-07-17 06:27:00,71.4,70.0,30.14,WSW,250,0.0,0.0,95,0.00,,,0.00,weatherlink.com 1.10,2013-07-17 10:27:00,
2013-07-17 06:42:00,72.2,71.0,30.15,WSW,250,0.0,0.0,95,0.00,,,0.00,weatherlink.com 1.10,2013-07-17 10:42:00,
2013-07-17 06:57:00,73.2,72.0,30.15,WSW,250,0.0,0.0,95,0.00,,,0.00,weatherlink.com 1.10,2013-07-17 10:57:00,
2013-07-17 07:12:00,74.4,72.0,30.15,WSW,250,0.0,0.0,93,0.00,,,0.00,weatherlink.com 1.10,2013-07-17 11:12:00,
2013-07-17 07:27:00,75.7,73.0,30.15,WSW,250,0.0,0.0,90,0.00,,,0.00,weatherlink.com 1.10,2013-07-17 11:27:00,
2013-07-17 07:42:00,77.5,71.0,30.15,WSW,250,0.0,0.0,81,0.00,,,0.00,weatherlink.com 1.10,2013-07-17 11:42:00,
2013-07-17 07:58:00,78.9,72.0,30.16,WSW,250,0.0,0.0,78,0.00,,,0.00,weatherlink.com 1.10,2013-07-17 11:58:00,
2013-07-17 08:13:00,80.7,73.0,30.15,WSW,250,0.0,1.0,77,0.00,,,0.00,weatherlink.com 1.10,2013-07-17 12:13:00,
2013-07-17 08:28:00,82.5,73.0,30.16,East,86,0.0,2.0,74,0.00,,,0.00,weatherlink.com 1.10,2013-07-17 12:28:00,
2013-07-17 08:43:00,83.2,73.0,30.16,East,80,0.0,3.0,71,0.00,,,0.00,weatherlink.com 1.10,2013-07-17 12:43:00,
2013-07-17 08:58:00,83.3,72.0,30.16,South,176,0.0,2.0,69,0.00,,,0.00,weatherlink.com 1.10,2013-07-17 12:58:00,
2013-07-17 09:13:00,84.9,72.0,30.16,ENE,75,1.0,4.0,66,0.00,,,0.00,weatherlink.com 1.10,2013-07-17 13:13:00,
2013-07-17 09:28:00,87.0,71.0,30.16,East,101,1.0,3.0,60,0.00,,,0.00,weatherlink.com 1.10,2013-07-17 13:28:00,
2013-07-17 09:43:00,87.5,72.0,30.16,East,90,3.0,5.0,60,0.00,,,0.00,weatherlink.com 1.10,2013-07-17 13:43:00,
2013-07-17 09:58:00,87.8,74.0,30.16,East,96,5.0,5.0,64,0.00,,,0.00,weatherlink.com 1.10,2013-07-17 13:58:00,
2013-07-17 10:13:00,88.2,75.0,30.15,East,101,0.0,5.0,64,0.00,,,0.00,weatherlink.com 1.10,2013-07-17 14:13:00,
2013-07-17 10:28:00,88.7,74.0,30.15,ESE,109,1.0,5.0,61,0.00,,,0.00,weatherlink.com 1.10,2013-07-17 14:28:00,
2013-07-17 10:43:00,88.2,73.0,30.14,East,96,3.0,5.0,61,0.00,,,0.00,weatherlink.com 1.10,2013-07-17 14:43:00,
2013-07-17 10:58:00,89.6,72.0,30.14,ESE,111,0.0,7.0,57,0.00,,,0.00,weatherlink.com 1.10,2013-07-17 14:58:00,
2013-07-17 11:13:00,90.2,73.0,30.14,SE,127,3.0,6.0,57,0.00,,,0.00,weatherlink.com 1.10,2013-07-17 15:13:00,
2013-07-17 11:28:00,90.4,73.0,30.14,SSE,152,0.0,5.0,57,0.00,,,0.00,weatherlink.com 1.10,2013-07-17 15:28:00,
2013-07-17 11:43:00,90.2,73.0,30.14,East,85,0.0,4.0,58,0.00,,,0.00,weatherlink.com 1.10,2013-07-17 15:43:00,
2013-07-17 11:58:00,89.5,72.0,30.13,SSW,210,0.0,4.0,57,0.00,,,0.00,weatherlink.com 1.10,2013-07-17 15:58:00,
2013-07-17 12:13:00,89.9,72.0,30.13,SE,125,2.0,6.0,55,0.00,,,0.00,weatherlink.com 1.10,2013-07-17 16:13:00,
2013-07-17 12:28:00,89.1,71.0,30.12,East,80,5.0,6.0,56,0.00,,,0.00,weatherlink.com 1.10,2013-07-17 16:28:00,
2013-07-17 12:43:00,89.1,72.0,30.12,ESE,122,3.0,6.0,57,0.00,,,0.00,weatherlink.com 1.10,2013-07-17 16:43:00,
2013-07-17 12:58:00,88.5,73.0,30.12,WNW,297,2.0,6.0,60,0.00,,,0.00,weatherlink.com 1.10,2013-07-17 16:58:00,
2013-07-17 13:13:00,89.0,73.0,30.12,SSW,212,3.0,3.0,60,0.00,,,0.00,weatherlink.com 1.10,2013-07-17 17:13:00,
2013-07-17 13:28:00,89.2,72.0,30.11,SW,219,1.0,6.0,58,0.00,,,0.00,weatherlink.com 1.10,2013-07-17 17:28:00,
2013-07-17 13:43:00,89.1,73.0,30.11,SSW,212,2.0,7.0,59,0.00,,,0.00,weatherlink.com 1.10,2013-07-17 17:43:00,
2013-07-17 13:58:00,88.1,71.0,30.11,SSE,167,2.0,7.0,58,0.00,,,0.00,weatherlink.com 1.10,2013-07-17 17:58:00,
2013-07-17 14:13:00,88.0,71.0,30.11,SW,233,2.0,7.0,58,0.00,,,0.00,weatherlink.com 1.10,2013-07-17 18:13:00,
2013-07-17 14:28:00,88.0,71.0,30.11,SW,222,0.0,4.0,58,0.00,,,0.00,weatherlink.com 1.10,2013-07-17 18:28:00,
2013-07-17 14:43:00,87.3,70.0,30.10,SW,224,2.0,8.0,57,0.00,,,0.00,weatherlink.com 1.10,2013-07-17 18:43:00,
2013-07-17 14:58:00,86.4,70.0,30.10,SE,131,1.0,8.0,59,0.00,,,0.00,weatherlink.com 1.10,2013-07-17 18:58:00,
2013-07-17 15:13:00,87.2,70.0,30.09,SSW,203,0.0,5.0,56,0.00,,,0.00,weatherlink.com 1.10,2013-07-17 19:13:00,
2013-07-17 15:28:00,86.5,70.0,30.09,SSE,165,1.0,8.0,58,0.00,,,0.00,weatherlink.com 1.10,2013-07-17 19:28:00,
2013-07-17 15:43:00,86.3,70.0,30.09,SW,222,1.0,5.0,59,0.00,,,0.00,weatherlink.com 1.10,2013-07-17 19:43:00,
2013-07-17 15:58:00,85.9,69.0,30.08,SSW,207,1.0,6.0,58,0.00,,,0.00,weatherlink.com 1.10,2013-07-17 19:58:00,
2013-07-17 16:13:00,85.8,70.0,30.07,WSW,241,3.0,8.0,59,0.00,,,0.00,weatherlink.com 1.10,2013-07-17 20:13:00,
2013-07-17 16:28:00,84.8,70.0,30.07,SW,220,5.0,6.0,61,0.00,,,0.00,weatherlink.com 1.10,2013-07-17 20:28:00,
2013-07-17 16:43:00,84.1,70.0,30.06,SSE,165,1.0,6.0,63,0.00,,,0.00,weatherlink.com 1.10,2013-07-17 20:43:00,
2013-07-17 16:58:00,83.9,71.0,30.06,SW,220,3.0,8.0,65,0.00,,,0.00,weatherlink.com 1.10,2013-07-17 20:58:00,
2013-07-17 17:14:00,84.0,71.0,30.05,WSW,247,0.0,7.0,64,0.00,,,0.00,weatherlink.com 1.10,2013-07-17 21:14:00,
2013-07-17 17:29:00,84.2,72.0,30.05,NW,309,0.0,5.0,66,0.00,,,0.00,weatherlink.com 1.10,2013-07-17 21:29:00,
2013-07-17 17:44:00,84.3,70.0,30.06,South,185,1.0,5.0,63,0.00,,,0.00,weatherlink.com 1.10,2013-07-17 21:44:00,
2013-07-17 17:59:00,83.0,69.0,30.05,SW,234,1.0,3.0,62,0.00,,,0.00,weatherlink.com 1.10,2013-07-17 21:59:00,
2013-07-17 18:14:00,81.8,69.0,30.05,WSW,241,1.0,6.0,65,0.00,,,0.00,weatherlink.com 1.10,2013-07-17 22:14:00,
2013-07-17 18:29:00,81.1,69.0,30.05,SW,216,0.0,4.0,67,0.00,,,0.00,weatherlink.com 1.10,2013-07-17 22:29:00,
2013-07-17 18:44:00,80.2,69.0,30.04,South,186,1.0,9.0,69,0.00,,,0.00,weatherlink.com 1.10,2013-07-17 22:44:00,
2013-07-17 18:59:00,79.7,70.0,30.04,SE,137,2.0,4.0,71,0.00,,,0.00,weatherlink.com 1.10,2013-07-17 22:59:00,
2013-07-17 19:14:00,79.1,70.0,30.04,SW,231,2.0,9.0,73,0.00,,,0.00,weatherlink.com 1.10,2013-07-17 23:14:00,
2013-07-17 19:29:00,78.4,71.0,30.03,SW,223,2.0,5.0,77,0.00,,,0.00,weatherlink.com 1.10,2013-07-17 23:29:00,
2013-07-17 19:44:00,78.0,71.0,30.02,WSW,240,0.0,5.0,80,0.00,,,0.00,weatherlink.com 1.10,2013-07-17 23:44:00,
2013-07-17 19:59:00,77.5,71.0,30.02,SSW,210,0.0,6.0,81,0.00,,,0.00,weatherlink.com 1.10,2013-07-17 23:59:00,
2013-07-17 20:14:00,77.1,71.0,30.04,WSW,238,0.0,3.0,82,0.00,,,0.00,weatherlink.com 1.10,2013-07-18 00:14:00,
2013-07-17 20:29:00,76.7,72.0,30.04,West,269,0.0,2.0,84,0.00,,,0.00,weatherlink.com 1.10,2013-07-18 00:29:00,
2013-07-17 20:44:00,76.4,72.0,30.04,NW,312,0.0,2.0,85,0.00,,,0.00,weatherlink.com 1.10,2013-07-18 00:44:00,
2013-07-17 20:59:00,76.2,71.0,30.04,North,6,0.0,2.0,84,0.00,,,0.00,weatherlink.com 1.10,2013-07-18 00:59:00,
2013-07-17 21:14:00,76.0,71.0,30.05,West,262,0.0,1.0,84,0.00,,,0.00,weatherlink.com 1.10,2013-07-18 01:14:00,
2013-07-17 21:29:00,75.7,71.0,30.05,ESE,103,0.0,1.0,84,0.00,,,0.00,weatherlink.com 1.10,2013-07-18 01:29:00,
2013-07-17 21:44:00,75.6,70.0,30.05,WSW,250,1.0,2.0,83,0.00,,,0.00,weatherlink.com 1.10,2013-07-18 01:44:00,
2013-07-17 21:59:00,75.6,70.0,30.04,WSW,255,0.0,2.0,82,0.00,,,0.00,weatherlink.com 1.10,2013-07-18 01:59:00,
2013-07-17 22:14:00,75.6,70.0,30.04,WNW,293,0.0,2.0,83,0.00,,,0.00,weatherlink.com 1.10,2013-07-18 02:14:00,
2013-07-17 22:29:00,75.7,71.0,30.04,WSW,248,1.0,4.0,84,0.00,,,0.00,weatherlink.com 1.10,2013-07-18 02:29:00,
2013-07-17 22:44:00,75.7,71.0,30.04,West,264,2.0,3.0,85,0.00,,,0.00,weatherlink.com 1.10,2013-07-18 02:44:00,
2013-07-17 22:59:00,75.6,71.0,30.03,WSW,257,5.0,5.0,86,0.00,,,0.00,weatherlink.com 1.10,2013-07-18 02:59:00,
2013-07-17 23:14:00,75.6,71.0,30.03,West,274,0.0,4.0,86,0.00,,,0.00,weatherlink.com 1.10,2013-07-18 03:14:00,
2013-07-17 23:29:00,75.6,71.0,30.03,SSW,206,0.0,2.0,86,0.00,,,0.00,weatherlink.com 1.10,2013-07-18 03:29:00,
2013-07-17 23:44:00,75.5,71.0,30.02,SSW,210,0.0,1.0,87,0.00,,,0.00,weatherlink.com 1.10,2013-07-18 03:44:00,
2013-07-17 23:59:00,75.3,71.0,30.02,SSW,210,0.0,1.0,87,0.00,,,0.00,weatherlink.com 1.10,2013-07-18 03:59:00,